Mahopac, NY (10541)

2:19 PM EDT on August 30, 2014 (GMT -0400)
Mahopac | Change Station
CLOSE
Current Station
Personal Weather Station
Location: Mahopac, NY
Elevation: 823 ft
Nearby Weather Stations

Elev 823 ft 41.37 °N, 73.74 °W | Updated 18 minutes ago

Overcast
Overcast
75.2 °F
Feels Like 78 °F
N
0.0
Wind Variable Wind from SE
Gusts 7.0 mph

Today
High -- | Low -- °F
--% Chance of Precip.
Yesterday
High -- | Low -- °F
Precip. -- in
6:19 AM 7:31 PM
Waxing Crescent, 23% visible
Pressure 30.23 in
Visibility 10.0 miles
Clouds Overcast 4200 ft
Heat Index 78 °F
Dew Point 58 °F
Humidity 56%
Rainfall 0.00 in
Snow Depth Not available.
UV 0.0 out of 12
Pollen 7.70 out of 12
PM2.5 Good
Flu Activity Not available.
METAR KDXR 301753Z 17009KT 130V190 10SM OVC042 23/14 A3024 RMK AO2 SLP237 T02330139 10244 20139 56013

More Conditions Fewer Conditions

Pressure 30.23 in
Visibility 10.0 miles
Clouds Overcast 4200 ft
Heat Index 78 °F
Dew Point 58 °F
Humidity 56%
Rainfall 0.00 in
Snow Depth Not available.
UV 0.0 out of 12
Pollen 7.70 out of 12
PM2.5 Good
Flu Activity Not available.
METAR KDXR 301753Z 17009KT 130V190 10SM OVC042 23/14 A3024 RMK AO2 SLP237 T02330139 10244 20139 56013

More Conditions Fewer Conditions

10-Day Weather Forecast

Almanac

Astronomy

Aug. 30, 2014 Rise Set
Actual Time 6:19 AM EDT 7:31 PM EDT
Civil Twilight 5:50 AM EDT 7:59 PM EDT
Nautical Twilight 5:16 AM EDT 8:33 PM EDT
Astronomical Twilight 4:40 AM EDT 9:09 PM EDT
Moon 11:07 AM EDT 9:59 PM EDT
Length of Visible Light 14h 09m
Length of Day
13h 12m
Tomorrow will be 2m 39s shorter.
Waxing Crescent, 23% of the Moon is Illuminated
Today
Waxing Crescent
Sep 2
First Quarter
Sep 8
Full
Sep 15
Last Quarter
Sep 24
New

Today's Extremes

State Highs State Lows

Community

WunderPhotos

Upload Photos

1,748,583 photos uploaded!

WunderBlogs® & News

Nearby

Air Quality

  Air Quality AQ Index Pollutant
Yesterday Good
OZONE
Yesterday Good
PM2.5
Current Good
PM2.5
Saturday Good
OZONE
Saturday Good
PM2.5
Sunday Moderate
PM2.5
Sunday Good
OZONE
Monday Moderate
OZONE
Monday Moderate
PM2.5
Tuesday Moderate
OZONE
Tuesday Moderate
PM2.5

Snow Depth

Station Depth Elevation
No new snow has been reported.

Earthquake Activity

City Distance Mag. Time & Date
No recent earthquake activity has been reported nearby.
Minimum magnitude displayed is 2.5.

Coastal Water Temperatures

Place Temperature
Kings Point, NY 73.9 °F

Nearby Weather Stations